Time;durP1;ratioP1;P1;durP2;ratioP2;P2;SDS_P1;SDS_P2;PMS_P1;PMS_P2;Temp;Humidity;BMP_temperature;BMP_pressure;BME280_temperature;BME280_humidity;BME280_pressure;Samples;Min_cycle;Max_cycle;Signal;HPM_P1;HPM_P2
2023/07/08 00:01:41;;;;;;;18.83;8.45;;;;;;;17.88;74.18;101489.53;5052990;28;20563;-48
2023/07/08 00:04:07;;;;;;;16.67;7.97;;;;;;;17.62;78.08;101491.88;5052772;28;20033;-45
2023/07/08 00:06:33;;;;;;;19.17;9.65;;;;;;;17.47;78.45;101487.38;5053275;28;20036;-47
2023/07/08 00:08:58;;;;;;;16.13;8.75;;;;;;;17.28;79.03;101481.94;5053346;28;20024;-48
2023/07/08 00:11:26;;;;;;;13.70;8.60;;;;;;;17.20;80.63;101486.19;5052421;28;20429;-47
2023/07/08 00:13:51;;;;;;;16.52;9.23;;;;;;;17.14;80.34;101483.50;5053229;28;20033;-49
2023/07/08 00:16:18;;;;;;;16.08;8.73;;;;;;;17.03;81.69;101475.56;5053388;28;20384;-49
2023/07/08 00:18:44;;;;;;;19.83;9.43;;;;;;;17.05;80.83;101473.81;5052391;28;20461;-48
2023/07/08 00:21:14;;;;;;;17.52;9.23;;;;;;;16.96;81.15;101476.31;5052915;28;20032;-50
2023/07/08 00:23:45;;;;;;;17.67;9.15;;;;;;;17.00;81.73;101477.25;5052742;28;20048;-49
2023/07/08 00:26:19;;;;;;;16.00;9.02;;;;;;;16.79;82.47;101471.72;5052467;28;20469;-48
2023/07/08 00:28:44;;;;;;;19.40;8.93;;;;;;;16.87;82.53;101471.81;5052506;28;20025;-44
2023/07/08 00:31:10;;;;;;;14.98;9.55;;;;;;;16.74;81.96;101468.19;5052926;28;20366;-46
2023/07/08 00:33:35;;;;;;;17.35;9.07;;;;;;;16.78;81.91;101462.19;5052037;28;20028;-44
2023/07/08 00:36:01;;;;;;;18.67;9.10;;;;;;;16.73;82.81;101468.16;5052568;28;20111;-46
2023/07/08 00:38:28;;;;;;;17.10;9.48;;;;;;;16.76;82.14;101465.63;5052828;28;20025;-47
2023/07/08 00:41:02;;;;;;;16.00;9.55;;;;;;;16.75;82.88;101461.25;5052434;28;20025;-47
2023/07/08 00:43:38;;;;;;;16.75;9.10;;;;;;;16.73;82.80;101462.97;5052262;28;20025;-49
2023/07/08 00:46:29;;;;;;;18.70;9.00;;;;;;;16.66;83.05;101466.34;5052274;28;20102;-48
2023/07/08 00:49:03;;;;;;;15.60;8.68;;;;;;;16.57;83.79;101461.88;5052675;28;20107;-49
2023/07/08 00:51:28;;;;;;;14.43;9.10;;;;;;;16.54;84.34;101454.00;5052442;28;20480;-45
2023/07/08 00:53:53;;;;;;;15.98;8.80;;;;;;;16.35;85.23;101458.94;5052212;28;20029;-47
2023/07/08 00:56:38;;;;;;;15.27;9.27;;;;;;;16.25;85.65;101454.44;5052374;28;20025;-47
2023/07/08 00:59:09;;;;;;;15.70;9.98;;;;;;;16.17;86.65;101453.47;5052660;28;20481;-47
2023/07/08 01:01:38;;;;;;;20.85;9.57;;;;;;;16.18;87.20;101450.88;5052008;28;20029;-48
2023/07/08 01:04:08;;;;;;;15.18;9.25;;;;;;;16.12;88.16;101453.38;5052374;28;20072;-46
2023/07/08 01:06:39;;;;;;;15.88;9.50;;;;;;;15.99;88.68;101454.03;5052288;28;20029;-45
2023/07/08 01:09:07;;;;;;;19.05;9.82;;;;;;;16.07;88.16;101452.41;5052054;28;20472;-48
2023/07/08 01:11:33;;;;;;;18.90;10.40;;;;;;;15.94;88.64;101454.78;5055796;28;20021;-46
2023/07/08 01:14:00;;;;;;;15.82;9.00;;;;;;;15.95;89.67;101453.09;5056889;28;20064;-48
2023/07/08 01:16:26;;;;;;;16.23;9.55;;;;;;;15.87;90.69;101450.38;5056167;28;20044;-48
2023/07/08 01:18:54;;;;;;;18.65;10.50;;;;;;;15.93;88.94;101450.47;5056376;28;20511;-49
2023/07/08 01:21:36;;;;;;;16.65;9.55;;;;;;;15.87;89.27;101459.88;5055870;28;20480;-47
2023/07/08 01:24:05;;;;;;;12.95;9.50;;;;;;;15.76;90.72;101462.25;5056104;28;20052;-48
2023/07/08 01:26:33;;;;;;;17.00;10.05;;;;;;;15.75;90.38;101464.00;5056099;28;20473;-48
2023/07/08 01:28:59;;;;;;;15.00;9.82;;;;;;;15.70;91.22;101462.13;5055826;28;20029;-48
2023/07/08 01:31:24;;;;;;;18.95;9.65;;;;;;;15.84;89.84;101459.81;5055928;28;20029;-47
2023/07/08 01:33:52;;;;;;;19.48;10.68;;;;;;;15.72;90.91;101456.13;5056325;28;20036;-47
2023/07/08 01:36:17;;;;;;;17.98;10.30;;;;;;;15.74;91.06;101459.63;5055711;28;20036;-48
2023/07/08 01:38:44;;;;;;;16.42;10.10;;;;;;;15.63;91.62;101454.25;5055643;28;20029;-47
2023/07/08 01:41:15;;;;;;;17.50;10.07;;;;;;;15.71;91.43;101454.38;5056179;28;20429;-47
2023/07/08 01:43:41;;;;;;;15.52;9.70;;;;;;;15.61;91.55;101449.88;5055258;28;20381;-47
2023/07/08 01:46:14;;;;;;;17.10;10.05;;;;;;;15.57;91.86;101442.84;5055706;28;20025;-48
2023/07/08 01:48:44;;;;;;;16.42;9.88;;;;;;;15.70;90.50;101447.44;5055718;28;20028;-44
2023/07/08 01:51:09;;;;;;;19.75;9.82;;;;;;;15.65;90.19;101443.88;5055808;28;20029;-46
2023/07/08 01:53:37;;;;;;;17.95;9.93;;;;;;;15.73;91.14;101449.22;5055629;28;20027;-47
2023/07/08 01:56:03;;;;;;;;;;;;;;;15.74;87.43;101449.25;5056301;28;20029;-48
2023/07/08 01:58:28;;;;;;;15.93;8.90;;;;;;;15.53;90.93;101434.16;5054921;28;20007;-48
2023/07/08 02:00:54;;;;;;;16.05;10.05;;;;;;;15.42;91.77;101433.06;5055530;28;20025;-46
2023/07/08 02:03:20;;;;;;;17.35;10.02;;;;;;;15.41;92.16;101423.50;5055218;28;20416;-46
2023/07/08 02:05:46;;;;;;;15.90;9.60;;;;;;;15.33;92.14;101423.38;5055523;28;20027;-47
2023/07/08 02:08:11;;;;;;;20.27;10.88;;;;;;;15.38;92.05;101416.53;5055710;28;20104;-49
2023/07/08 02:10:39;;;;;;;19.25;10.85;;;;;;;15.44;91.93;101421.84;5054845;28;20136;-46
2023/07/08 02:13:04;;;;;;;;;;;;;;;15.51;88.50;101424.56;5055796;28;20021;-47
2023/07/08 02:15:29;;;;;;;21.93;9.90;;;;;;;15.34;91.34;101417.31;5055159;28;19913;-47
2023/07/08 02:17:55;;;;;;;19.40;10.10;;;;;;;15.46;91.70;101425.34;5055074;28;20021;-48
2023/07/08 02:20:20;;;;;;;19.83;10.45;;;;;;;15.34;92.31;101416.44;5055318;28;20113;-48
2023/07/08 02:22:45;;;;;;;17.70;10.48;;;;;;;15.08;94.79;101402.13;5054945;28;20128;-46
2023/07/08 02:25:11;;;;;;;16.77;10.60;;;;;;;14.97;95.04;101401.88;5055004;28;20029;-46
2023/07/08 02:27:37;;;;;;;15.55;10.52;;;;;;;14.93;95.12;101399.22;5054679;28;20041;-47
2023/07/08 02:30:04;;;;;;;18.30;10.30;;;;;;;14.98;94.29;101393.25;5055372;28;20017;-45
2023/07/08 02:32:29;;;;;;;16.70;10.52;;;;;;;15.06;94.19;101396.00;5054549;28;20033;-47
2023/07/08 02:34:54;;;;;;;16.42;10.35;;;;;;;15.06;94.99;101396.00;5054920;28;20036;-48
2023/07/08 02:37:20;;;;;;;15.45;10.40;;;;;;;15.02;94.16;101391.59;5055250;28;20035;-45
2023/07/08 02:39:45;;;;;;;17.42;11.20;;;;;;;14.84;96.31;101391.25;5054370;28;20047;-47
2023/07/08 02:42:10;;;;;;;20.52;10.40;;;;;;;14.77;95.85;101393.69;5054861;28;20106;-46
2023/07/08 02:44:36;;;;;;;20.80;10.32;;;;;;;14.78;95.78;101395.47;5054626;28;20070;-47
2023/07/08 02:47:01;;;;;;;19.05;11.07;;;;;;;14.71;96.23;101393.56;5054393;28;20037;-48
2023/07/08 02:49:27;;;;;;;19.23;11.77;;;;;;;14.65;96.28;101396.91;5054557;28;20377;-47
2023/07/08 02:51:52;;;;;;;17.08;10.98;;;;;;;14.56;97.01;101393.19;5055007;28;20024;-45
2023/07/08 02:54:17;;;;;;;17.48;10.63;;;;;;;14.63;96.40;101395.09;5054403;28;20029;-46
2023/07/08 02:56:43;;;;;;;19.10;10.73;;;;;;;14.58;97.26;101391.53;5054381;28;20025;-45
2023/07/08 02:59:08;;;;;;;17.30;10.75;;;;;;;14.63;97.05;101397.69;5054735;28;20025;-47
2023/07/08 03:01:41;;;;;;;18.70;10.00;;;;;;;14.74;96.72;101400.53;5053821;28;20368;-47
2023/07/08 03:04:08;;;;;;;19.27;10.73;;;;;;;14.71;97.31;101403.94;5054545;28;20045;-47
2023/07/08 03:06:34;;;;;;;16.38;10.57;;;;;;;14.79;96.30;101404.09;5054157;28;20036;-44
2023/07/08 03:09:00;;;;;;;21.73;10.20;;;;;;;14.80;97.06;101401.53;5054791;28;20032;-48
2023/07/08 03:11:25;;;;;;;15.70;9.57;;;;;;;14.91;96.11;101400.88;5054238;28;20369;-47
2023/07/08 03:13:51;;;;;;;16.98;10.63;;;;;;;14.96;96.75;101404.44;5054017;28;20033;-47
2023/07/08 03:16:16;;;;;;;19.40;10.93;;;;;;;14.96;95.60;101401.84;5054313;28;20469;-47
2023/07/08 03:18:48;;;;;;;17.88;9.90;;;;;;;14.81;96.20;101405.03;5054049;28;20883;-45
2023/07/08 03:21:17;;;;;;;16.83;10.27;;;;;;;14.87;96.44;101412.06;5053834;28;20064;-48
2023/07/08 03:23:42;;;;;;;15.65;10.30;;;;;;;14.71;97.80;101403.94;5053566;28;20052;-48
2023/07/08 03:26:14;;;;;;;14.20;10.38;;;;;;;14.58;98.83;101407.09;5054123;28;20404;-45
2023/07/08 03:28:39;;;;;;;16.48;10.18;;;;;;;14.54;98.62;101403.53;5053309;28;20033;-46
2023/07/08 03:31:05;;;;;;;20.08;10.50;;;;;;;14.58;98.47;101401.91;5054020;28;20021;-47
2023/07/08 03:33:30;;;;;;;18.35;11.50;;;;;;;14.55;98.89;101405.31;5053377;28;20117;-47
2023/07/08 03:35:55;;;;;;;19.13;11.00;;;;;;;14.53;98.88;101411.31;5053545;28;20021;-42
2023/07/08 03:38:21;;;;;;;18.88;10.18;;;;;;;14.60;98.95;101413.16;5053861;28;20358;-45
2023/07/08 03:40:46;;;;;;;17.65;11.23;;;;;;;14.70;98.79;101407.38;5053663;28;20040;-46
2023/07/08 03:43:11;;;;;;;22.27;11.85;;;;;;;14.67;98.71;101412.50;5053357;28;20091;-44
2023/07/08 03:45:37;;;;;;;18.15;10.98;;;;;;;14.68;98.86;101414.28;5053495;28;20530;-45
2023/07/08 03:48:02;;;;;;;21.25;11.40;;;;;;;14.66;98.37;101408.16;5053877;28;20120;-49
2023/07/08 03:50:28;;;;;;;17.75;10.90;;;;;;;14.74;98.75;101411.78;5052938;28;20063;-46
2023/07/08 03:52:55;;;;;;;21.80;11.48;;;;;;;14.63;98.85;101410.66;5053438;28;20036;-45
2023/07/08 03:55:21;;;;;;;23.48;12.45;;;;;;;14.58;99.56;101418.34;5053539;28;20053;-48
2023/07/08 03:57:47;;;;;;;21.85;11.25;;;;;;;14.61;99.20;101418.38;5052692;28;20473;-47
2023/07/08 04:00:14;;;;;;;23.77;12.38;;;;;;;14.78;99.04;101418.81;5053562;28;20037;-43
2023/07/08 04:02:40;;;;;;;19.58;12.05;;;;;;;14.77;99.12;101421.34;5053187;28;20476;-48
2023/07/08 04:05:06;;;;;;;22.45;12.15;;;;;;;14.78;99.15;101415.31;5052992;28;20056;-48
2023/07/08 04:07:33;;;;;;;21.33;11.15;;;;;;;14.82;98.77;101422.31;5052871;28;20477;-46
2023/07/08 04:09:58;;;;;;;22.07;12.40;;;;;;;14.78;98.75;101421.41;5052830;28;20032;-45
2023/07/08 04:12:23;;;;;;;18.02;11.18;;;;;;;14.82;99.20;101423.22;5052704;28;20276;-43
2023/07/08 04:14:49;;;;;;;18.90;11.70;;;;;;;14.70;100.00;101425.53;5053307;28;20021;-44
2023/07/08 04:17:17;;;;;;;21.23;13.57;;;;;;;14.70;100.00;101427.25;5052958;28;20021;-47
2023/07/08 04:19:43;;;;;;;20.02;13.00;;;;;;;14.71;100.00;101431.63;5052776;28;20029;-45
2023/07/08 04:22:10;;;;;;;21.20;12.52;;;;;;;14.76;100.00;101433.47;5053166;28;20097;-45
2023/07/08 04:24:36;;;;;;;23.85;12.40;;;;;;;14.75;100.00;101425.66;5052120;28;20438;-45
2023/07/08 04:27:01;;;;;;;21.55;12.90;;;;;;;14.87;100.00;101431.09;5053022;28;20115;-48
2023/07/08 04:29:27;;;;;;;24.67;14.25;;;;;;;14.84;100.00;101430.16;5052981;28;20043;-45
2023/07/08 04:31:52;;;;;;;21.45;13.63;;;;;;;14.92;100.00;101434.66;5052583;28;20048;-46
2023/07/08 04:34:18;;;;;;;27.35;14.75;;;;;;;14.91;100.00;101429.44;5052795;28;20512;-43
2023/07/08 04:36:44;;;;;;;25.42;14.60;;;;;;;14.99;100.00;101433.09;5052564;28;20055;-46
2023/07/08 04:39:10;;;;;;;25.25;13.80;;;;;;;15.05;100.00;101425.41;5052428;28;20037;-48
2023/07/08 04:41:43;;;;;;;24.75;14.70;;;;;;;15.06;100.00;101426.28;5052298;28;20021;-48
2023/07/08 04:44:10;;;;;;;25.40;14.50;;;;;;;15.14;100.00;101417.81;5052386;28;20051;-46
2023/07/08 04:46:47;;;;;;;25.30;15.67;;;;;;;15.18;100.00;101415.28;5051757;28;20025;-48
2023/07/08 04:49:13;;;;;;;21.25;14.32;;;;;;;15.31;99.90;101418.16;5052677;28;20337;-47
2023/07/08 04:51:39;;;;;;;24.60;15.20;;;;;;;15.42;100.00;101415.75;5052450;28;20021;-44
2023/07/08 04:54:05;;;;;;;24.35;15.43;;;;;;;15.47;100.00;101419.31;5052346;28;20029;-45
2023/07/08 04:56:49;;;;;;;27.10;16.45;;;;;;;15.56;100.00;101429.00;5052409;28;20040;-44
2023/07/08 04:59:17;;;;;;;23.77;16.02;;;;;;;15.61;100.00;101423.88;5052198;28;20029;-46
2023/07/08 05:01:42;;;;;;;29.58;16.45;;;;;;;15.72;100.00;101422.34;5052148;28;20033;-44
2023/07/08 05:04:12;;;;;;;24.40;16.00;;;;;;;15.80;100.00;101422.47;5052657;28;20027;-46
2023/07/08 05:06:37;;;;;;;27.50;16.10;;;;;;;15.85;100.00;101415.66;5051897;28;20056;-44
2023/07/08 05:09:03;;;;;;;33.85;17.25;;;;;;;15.95;99.32;101414.09;5052480;28;20469;-43
2023/07/08 05:11:29;;;;;;;27.00;16.42;;;;;;;16.08;97.59;101418.63;5052421;28;20028;-43
2023/07/08 05:13:54;;;;;;;26.35;16.80;;;;;;;16.16;97.19;101416.16;5052152;28;20017;-44
2023/07/08 05:16:20;;;;;;;24.92;16.23;;;;;;;16.27;96.99;101430.22;5052461;28;20017;-45
2023/07/08 05:18:45;;;;;;;28.02;16.70;;;;;;;16.38;97.50;101425.16;5052045;28;20499;-46
2023/07/08 05:21:11;;;;;;;24.40;16.05;;;;;;;16.46;95.53;101426.16;5052148;28;20033;-46
2023/07/08 05:23:37;;;;;;;27.58;16.85;;;;;;;16.57;94.77;101423.69;5051926;28;20462;-47
2023/07/08 05:26:04;;;;;;;28.45;17.75;;;;;;;16.72;94.18;101424.75;5052460;28;20033;-46
2023/07/08 05:28:29;;;;;;;30.40;18.80;;;;;;;16.79;95.25;101417.06;5051610;28;20033;-45
2023/07/08 05:30:55;;;;;;;32.03;19.48;;;;;;;16.89;94.38;101422.41;5052152;28;20388;-47
2023/07/08 05:33:25;;;;;;;32.20;18.35;;;;;;;16.95;92.72;101422.50;5052301;28;20017;-47
2023/07/08 05:35:50;;;;;;;31.50;19.17;;;;;;;17.01;94.76;101419.97;5051831;28;20131;-49
2023/07/08 05:38:16;;;;;;;35.13;18.75;;;;;;;17.10;91.69;101419.22;5052365;28;20372;-47
2023/07/08 05:40:41;;;;;;;28.38;18.17;;;;;;;17.18;93.59;101417.56;5051955;28;20082;-48
2023/07/08 05:43:06;;;;;;;32.40;18.80;;;;;;;17.29;92.29;101415.09;5051733;28;20021;-44
2023/07/08 05:45:32;;;;;;;30.95;19.17;;;;;;;17.37;91.20;101412.56;5051679;28;20028;-48
2023/07/08 05:47:57;;;;;;;43.63;19.88;;;;;;;17.49;91.11;101417.03;5052145;28;20078;-47
2023/07/08 05:50:23;;;;;;;32.55;17.92;;;;;;;17.53;90.93;101416.19;5051607;28;20082;-47
2023/07/08 05:52:48;;;;;;;31.42;19.40;;;;;;;17.63;89.91;101418.03;5052120;28;20024;-44
2023/07/08 05:55:15;;;;;;;27.80;18.83;;;;;;;17.73;88.35;101417.25;5052325;28;20027;-43
2023/07/08 05:57:40;;;;;;;34.50;19.10;;;;;;;17.85;89.30;101415.63;5054517;28;20381;-46
2023/07/08 06:00:06;;;;;;;35.85;20.08;;;;;;;17.97;89.49;101417.47;5055812;28;20017;-47
2023/07/08 06:02:31;;;;;;;32.63;19.25;;;;;;;18.09;90.79;101425.41;5054881;28;20025;-47
2023/07/08 06:04:57;;;;;;;38.22;19.88;;;;;;;18.16;89.04;101421.13;5055743;28;20017;-48
2023/07/08 06:07:22;;;;;;;36.22;18.55;;;;;;;18.27;89.54;101419.47;5055551;28;20043;-43
2023/07/08 06:09:47;;;;;;;32.22;19.67;;;;;;;18.38;88.61;101417.78;5055306;28;20025;-45
2023/07/08 06:12:13;;;;;;;32.13;18.95;;;;;;;18.47;88.89;101426.53;5055510;28;20021;-43
2023/07/08 06:14:39;;;;;;;31.55;18.80;;;;;;;18.56;86.20;101426.59;5055338;28;20427;-46
2023/07/08 06:17:04;;;;;;;32.90;18.67;;;;;;;18.69;88.47;101431.00;5054900;28;20116;-48
2023/07/08 06:19:29;;;;;;;33.20;19.05;;;;;;;18.76;85.65;101430.19;5055093;28;20024;-47
2023/07/08 06:21:55;;;;;;;32.72;17.80;;;;;;;18.88;85.55;101428.50;5055570;28;20064;-48
2023/07/08 06:24:20;;;;;;;33.85;18.90;;;;;;;19.00;84.87;101428.56;5054705;28;20133;-49
2023/07/08 06:26:46;;;;;;;32.58;17.23;;;;;;;19.10;82.09;101429.50;5054799;28;20053;-48
2023/07/08 06:29:11;;;;;;;28.73;17.45;;;;;;;19.20;81.26;101435.63;5055398;28;20025;-44
2023/07/08 06:31:37;;;;;;;36.75;17.52;;;;;;;19.30;80.85;101426.94;5054337;28;20469;-47
2023/07/08 06:34:03;;;;;;;34.95;18.13;;;;;;;19.49;84.30;101429.59;5054921;28;20033;-46
2023/07/08 06:36:29;;;;;;;34.63;18.92;;;;;;;19.57;79.56;101433.09;5055014;28;20024;-47
2023/07/08 06:38:54;;;;;;;37.78;19.13;;;;;;;19.65;78.32;101435.72;5054699;28;20017;-45
2023/07/08 06:41:20;;;;;;;37.80;19.17;;;;;;;19.76;78.28;101439.22;5054937;28;20050;-49
2023/07/08 06:43:45;;;;;;;35.45;19.85;;;;;;;19.94;78.37;101434.91;5054840;28;20074;-44
2023/07/08 06:46:11;;;;;;;35.58;19.60;;;;;;;20.06;78.50;101441.00;5054314;28;20442;-46
2023/07/08 06:48:36;;;;;;;34.25;19.70;;;;;;;20.18;77.76;101428.78;5054296;28;20029;-48
2023/07/08 06:51:01;;;;;;;37.20;21.10;;;;;;;20.32;75.59;101427.03;5055098;28;20017;-44
2023/07/08 06:53:27;;;;;;;36.97;20.15;;;;;;;20.40;75.19;101427.88;5054184;28;20146;-44
2023/07/08 06:55:53;;;;;;;33.53;19.67;;;;;;;20.57;73.83;101426.97;5054792;28;20029;-44
2023/07/08 06:58:18;;;;;;;38.15;20.13;;;;;;;20.64;72.81;101428.69;5054976;28;20104;-48
2023/07/08 07:00:44;;;;;;;36.47;19.52;;;;;;;20.77;73.43;101439.16;5053600;28;20105;-47
2023/07/08 07:03:10;;;;;;;40.15;20.63;;;;;;;20.83;70.37;101428.66;5054614;28;20044;-45
2023/07/08 07:05:35;;;;;;;39.42;20.02;;;;;;;20.96;70.73;101424.25;5054474;28;20100;-47
2023/07/08 07:08:01;;;;;;;39.00;20.55;;;;;;;21.06;68.02;101425.97;5052887;28;20028;-48
2023/07/08 07:10:26;;;;;;;35.00;20.50;;;;;;;21.14;66.80;101418.91;5054296;28;20028;-45
2023/07/08 07:12:51;;;;;;;37.85;19.95;;;;;;;21.24;67.75;101429.34;5053966;28;20033;-47
2023/07/08 07:15:17;;;;;;;36.60;20.48;;;;;;;21.31;67.12;101429.31;5054159;28;20025;-46
2023/07/08 07:17:42;;;;;;;34.20;20.60;;;;;;;21.50;69.79;101422.19;5054130;28;20101;-47
2023/07/08 07:20:08;;;;;;;39.47;21.52;;;;;;;21.63;69.90;101425.63;5053937;28;20033;-47
2023/07/08 07:22:34;;;;;;;38.63;19.88;;;;;;;21.74;67.96;101419.44;5053640;28;20037;-47
2023/07/08 07:24:59;;;;;;;34.42;18.17;;;;;;;21.85;68.21;101420.22;5054383;28;20075;-48
2023/07/08 07:27:25;;;;;;;36.10;19.63;;;;;;;21.94;67.29;101417.53;5053246;28;20043;-49
2023/07/08 07:29:51;;;;;;;40.22;20.75;;;;;;;22.01;65.60;101419.22;5053934;28;20457;-49
2023/07/08 07:32:18;;;;;;;44.10;20.27;;;;;;;22.17;67.20;101430.44;5054142;28;20052;-45
2023/07/08 07:34:47;;;;;;;40.83;20.50;;;;;;;22.24;65.22;101428.63;5053053;28;20366;-48
2023/07/08 07:37:14;;;;;;;36.22;19.48;;;;;;;22.37;63.64;101434.66;5053759;28;20024;-49
2023/07/08 07:39:40;;;;;;;38.70;18.65;;;;;;;22.42;63.17;101426.75;5053509;28;20385;-47
2023/07/08 07:42:06;;;;;;;35.92;18.30;;;;;;;22.56;63.30;101422.22;5053364;28;20033;-46
2023/07/08 07:44:32;;;;;;;42.95;16.80;;;;;;;22.71;64.67;101425.53;5053442;28;20082;-47
2023/07/08 07:46:57;;;;;;;45.17;18.83;;;;;;;22.89;63.97;101420.03;5053775;28;20032;-47
2023/07/08 07:49:22;;;;;;;32.03;16.65;;;;;;;22.99;59.59;101423.44;5053184;28;20031;-44
2023/07/08 07:51:48;;;;;;;35.20;16.13;;;;;;;23.11;58.56;101423.28;5053677;28;20107;-45
2023/07/08 07:54:14;;;;;;;31.05;15.80;;;;;;;23.22;58.17;101428.41;5053886;28;20023;-47
2023/07/08 07:56:39;;;;;;;34.35;17.05;;;;;;;23.33;57.65;101431.78;5052826;28;20029;-47
2023/07/08 07:59:04;;;;;;;31.73;15.68;;;;;;;23.50;58.31;101428.88;5053308;28;20025;-46
2023/07/08 08:01:30;;;;;;;35.33;15.98;;;;;;;23.65;61.29;101425.16;5053348;28;20044;-49
2023/07/08 08:03:55;;;;;;;38.72;15.07;;;;;;;23.80;59.81;101410.00;5052758;28;20029;-48
2023/07/08 08:06:20;;;;;;;33.80;15.52;;;;;;;23.89;57.96;101414.25;5053472;28;20473;-48
2023/07/08 08:08:46;;;;;;;41.05;17.77;;;;;;;23.99;56.87;101418.50;5053237;28;20099;-48
2023/07/08 08:11:12;;;;;;;37.25;17.35;;;;;;;24.14;59.29;101417.34;5052625;28;20024;-46
2023/07/08 08:13:37;;;;;;;33.13;16.17;;;;;;;24.23;60.74;101417.19;5053104;28;20028;-48
2023/07/08 08:16:03;;;;;;;37.10;15.95;;;;;;;24.41;55.76;101418.59;5052606;28;20029;-44
2023/07/08 08:18:28;;;;;;;38.15;15.65;;;;;;;24.52;55.23;101422.78;5052756;28;20029;-46
2023/07/08 08:20:54;;;;;;;39.65;16.40;;;;;;;24.67;56.63;101432.22;5053320;28;20075;-48
2023/07/08 08:23:19;;;;;;;38.40;16.00;;;;;;;24.86;53.97;101437.97;5052638;28;20132;-47
2023/07/08 08:25:44;;;;;;;37.05;17.33;;;;;;;24.89;57.22;101430.84;5052568;28;20054;-48
2023/07/08 08:28:10;;;;;;;43.25;18.38;;;;;;;24.98;56.10;101435.97;5053083;28;20100;-48
2023/07/08 08:30:35;;;;;;;41.85;18.40;;;;;;;25.09;55.52;101434.84;5052108;28;20114;-48
2023/07/08 08:33:01;;;;;;;44.65;18.27;;;;;;;25.13;50.71;101444.44;5052770;28;20480;-47
2023/07/08 08:35:26;;;;;;;41.00;16.33;;;;;;;25.24;52.71;101441.53;5052964;28;20453;-50
2023/07/08 08:37:54;;;;;;;42.47;17.60;;;;;;;25.45;54.54;101449.00;5052336;28;20476;-47
2023/07/08 08:40:20;;;;;;;37.53;16.58;;;;;;;25.48;50.54;101456.00;5052701;28;20029;-48
2023/07/08 08:43:02;;;;;;;40.35;16.83;;;;;;;25.59;53.43;101451.34;5052593;28;20035;-48
2023/07/08 08:45:34;;;;;;;41.90;17.10;;;;;;;25.69;50.33;101453.75;5052119;28;20029;-47
2023/07/08 08:48:03;;;;;;;38.92;17.70;;;;;;;25.78;50.96;101459.69;5052668;28;20052;-47
2023/07/08 08:50:39;;;;;;;45.22;17.10;;;;;;;26.00;52.21;101458.28;5052599;28;20025;-48
2023/07/08 08:53:11;;;;;;;43.70;17.30;;;;;;;26.14;53.69;101456.19;5051908;28;20027;-46
2023/07/08 08:55:37;;;;;;;37.72;16.05;;;;;;;26.25;52.63;101451.47;5052357;28;20079;-48
2023/07/08 08:58:05;;;;;;;51.70;18.40;;;;;;;26.34;50.66;101452.13;5052654;28;20075;-48
2023/07/08 09:00:44;;;;;;;41.45;17.52;;;;;;;26.36;50.84;101461.75;5051494;28;20392;-48
2023/07/08 09:03:15;;;;;;;44.33;17.17;;;;;;;26.40;50.64;101466.06;5052837;28;20021;-48
2023/07/08 09:05:43;;;;;;;41.42;17.80;;;;;;;26.57;50.04;101465.59;5051947;28;20021;-48
2023/07/08 09:08:22;;;;;;;39.72;17.65;;;;;;;26.69;51.89;101461.75;5052468;28;20029;-46
2023/07/08 09:10:52;;;;;;;43.35;17.77;;;;;;;26.76;50.48;101459.81;5052872;28;20017;-47
2023/07/08 09:13:36;;;;;;;39.80;17.80;;;;;;;26.92;51.71;101465.53;5052062;28;20029;-46
2023/07/08 09:16:09;;;;;;;40.13;17.08;;;;;;;27.09;53.13;101467.69;5052278;28;20424;-49
2023/07/08 09:18:53;;;;;;;40.63;16.95;;;;;;;27.28;52.41;101466.22;5052078;28;20044;-46
2023/07/08 09:21:26;;;;;;;40.78;16.77;;;;;;;27.48;53.44;101463.91;5051669;28;20029;-47
2023/07/08 09:24:00;;;;;;;36.90;18.55;;;;;;;27.48;48.42;101459.47;5052452;28;20045;-48
2023/07/08 09:26:27;;;;;;;42.60;16.15;;;;;;;27.67;51.04;101457.09;5051896;28;20025;-49
2023/07/08 09:28:53;;;;;;;46.65;16.63;;;;;;;27.83;46.21;101453.94;5052194;28;20074;-48
2023/07/08 09:31:26;;;;;;;41.17;16.88;;;;;;;28.04;47.33;101447.97;5054043;28;20021;-44
2023/07/08 09:34:04;;;;;;;34.90;16.60;;;;;;;28.16;48.23;101451.97;5056048;28;20116;-45
2023/07/08 09:36:29;;;;;;;43.58;16.85;;;;;;;28.30;45.47;101447.97;5055763;28;20469;-44
2023/07/08 09:38:54;;;;;;;37.45;16.90;;;;;;;28.50;45.83;101449.91;5056234;28;20036;-48
2023/07/08 09:41:31;;;;;;;43.70;19.33;;;;;;;28.49;46.46;101449.03;5055697;28;20033;-47
2023/07/08 09:44:14;;;;;;;;;;;;;;;28.61;47.50;101447.72;5056645;28;20275;-45
2023/07/08 09:46:40;;;;;;;42.17;18.83;;;;;;;28.97;46.26;101452.59;5056029;28;19948;-49
2023/07/08 09:49:31;;;;;;;35.78;17.40;;;;;;;29.10;48.96;101450.34;5055280;28;20499;-48
2023/07/08 09:51:56;;;;;;;41.65;17.70;;;;;;;29.48;44.98;101440.03;5056414;28;20028;-44
2023/07/08 09:54:24;;;;;;;44.17;18.40;;;;;;;29.64;46.88;101444.72;5056342;28;20033;-44
2023/07/08 09:57:02;;;;;;;39.80;17.50;;;;;;;29.73;46.09;101445.22;5055428;28;20067;-46
2023/07/08 09:59:32;;;;;;;43.92;18.23;;;;;;;30.01;45.58;101432.56;5055835;28;20121;-46
2023/07/08 10:02:19;;;;;;;41.40;17.85;;;;;;;30.06;44.15;101430.56;5055504;28;20051;-46
2023/07/08 10:04:44;;;;;;;35.47;16.67;;;;;;;30.89;43.46;101435.78;5055495;28;20025;-47
2023/07/08 10:07:16;;;;;;;41.25;16.27;;;;;;;30.96;38.82;101443.41;5055831;28;20032;-48
2023/07/08 10:09:42;;;;;;;36.95;17.27;;;;;;;31.10;36.30;101440.09;5055034;28;20048;-46
2023/07/08 10:12:13;;;;;;;35.80;16.95;;;;;;;31.41;35.24;101438.63;5055642;28;20377;-44
2023/07/08 10:14:50;;;;;;;45.50;17.88;;;;;;;31.74;34.37;101440.59;5055330;28;20021;-44
2023/07/08 10:17:18;;;;;;;42.33;16.80;;;;;;;31.94;31.85;101436.91;5054978;28;20028;-44
2023/07/08 10:19:43;;;;;;;38.85;16.63;;;;;;;32.32;32.32;101438.56;5055194;28;20033;-48
2023/07/08 10:22:22;;;;;;;33.42;16.58;;;;;;;33.18;32.88;101440.16;5055614;28;20047;-47
2023/07/08 10:25:06;;;;;;;40.55;15.88;;;;;;;34.03;34.37;101440.63;5054635;28;20029;-47
2023/07/08 10:27:49;;;;;;;36.92;17.02;;;;;;;34.28;31.89;101445.31;5055225;28;20033;-48
2023/07/08 10:30:52;;;;;;;41.63;16.38;;;;;;;34.48;31.21;101448.63;5054950;28;20025;-46
2023/07/08 10:33:32;;;;;;;39.30;16.05;;;;;;;35.03;29.11;101449.63;5054506;28;20052;-45
2023/07/08 10:36:36;;;;;;;34.65;16.42;;;;;;;35.53;30.06;101453.50;5055358;28;20021;-44
2023/07/08 10:39:29;;;;;;;34.53;15.52;;;;;;;36.53;27.83;101455.72;5054328;28;20362;-48
2023/07/08 10:42:08;;;;;;;32.38;15.15;;;;;;;37.47;25.12;101448.03;5055331;28;20033;-47
2023/07/08 10:44:37;;;;;;;35.75;15.73;;;;;;;37.98;23.81;101453.13;5054401;28;20029;-48
2023/07/08 10:47:30;;;;;;;34.67;15.63;;;;;;;37.85;23.76;101445.13;5054817;28;20033;-45
2023/07/08 10:50:14;;;;;;;32.00;15.13;;;;;;;38.09;23.41;101448.72;5054959;28;20033;-47
2023/07/08 10:52:48;;;;;;;33.65;14.77;;;;;;;38.29;23.79;101456.13;5053957;28;20033;-46
2023/07/08 10:55:28;;;;;;;34.50;14.68;;;;;;;38.62;21.14;101462.50;5054980;28;20029;-48
2023/07/08 10:58:21;;;;;;;39.65;15.65;;;;;;;39.01;22.42;101460.25;5054365;28;20033;-44
2023/07/08 11:01:00;;;;;;;37.40;15.35;;;;;;;38.86;22.40;101453.44;5054363;28;20392;-45
2023/07/08 11:03:46;;;;;;;46.10;16.55;;;;;;;39.57;21.30;101454.81;5054699;28;20103;-49
2023/07/08 11:06:18;;;;;;;37.90;16.35;;;;;;;40.50;21.48;101458.53;5053649;28;20037;-44
2023/07/08 11:08:59;;;;;;;35.45;16.42;;;;;;;41.26;21.64;101451.78;5054252;28;20033;-47
2023/07/08 11:11:38;;;;;;;44.60;15.82;;;;;;;40.53;20.47;101455.59;5054222;28;20028;-47
2023/07/08 11:14:13;;;;;;;40.45;16.60;;;;;;;40.13;20.79;101454.56;5053831;28;20078;-44
2023/07/08 11:17:07;;;;;;;44.83;16.27;;;;;;;40.21;20.62;101451.19;5054234;28;20032;-46
2023/07/08 11:19:42;;;;;;;37.75;15.30;;;;;;;39.94;19.57;101455.25;5053540;28;20385;-45